UVA8337 EPWA-EGLL
Flight info
| Callsign | UVA8337 |
|---|---|
| Flight time | 2h 6m |
| Altitude | 36000 |
| Route | LOLSI DCT DIBLO DCT INDIG DCT SUBIX DCT HLZ DCT ABNED L980 LOGAN |
| Aircraft | B739/M-SDE2E3FGHIRWXY/LB1 |
Departure
| Time | 2026-05-04 02:39 |
|---|---|
| Airport | Warsaw Chopin Airport (EPWA) |
Arrival
| Time | 2026-05-04 04:45 |
|---|---|
| Airport | London Heathrow Airport (EGLL) |
| Time | Latitude | Longitude | Altitude | Speed | Heading |
|---|---|---|---|---|---|
| 2026-05-04 02:25 | 52.16847 | 20.97275 | 349 ft | 0 kts | 76° |
| 2026-05-04 02:28 | 52.16843 | 20.97253 | 359 ft | 3 kts | 76° |
| 2026-05-04 02:28 | 52.16839 | 20.97224 | 351 ft | 3 kts | 76° |
| 2026-05-04 02:28 | 52.16834 | 20.97194 | 357 ft | 3 kts | 76° |
| 2026-05-04 02:29 | 52.16830 | 20.97164 | 357 ft | 3 kts | 76° |
| 2026-05-04 02:29 | 52.16826 | 20.97135 | 355 ft | 3 kts | 76° |
| 2026-05-04 02:29 | 52.16824 | 20.97125 | 356 ft | 0 kts | 76° |
| 2026-05-04 02:30 | 52.16825 | 20.97131 | 355 ft | 1 kts | 77° |
| 2026-05-04 02:30 | 52.16826 | 20.97144 | 356 ft | 2 kts | 80° |
| 2026-05-04 02:30 | 52.16828 | 20.97164 | 356 ft | 0 kts | 84° |
| 2026-05-04 02:30 | 52.16828 | 20.97165 | 356 ft | 0 kts | 86° |
| 2026-05-04 02:31 | 52.16825 | 20.97175 | 357 ft | 2 kts | 117° |
| 2026-05-04 02:31 | 52.16800 | 20.97184 | 351 ft | 7 kts | 175° |
| 2026-05-04 02:31 | 52.16736 | 20.97204 | 357 ft | 12 kts | 155° |
| 2026-05-04 02:31 | 52.16644 | 20.97279 | 355 ft | 17 kts | 152° |
| 2026-05-04 02:32 | 52.16553 | 20.97429 | 352 ft | 21 kts | 114° |
| 2026-05-04 02:32 | 52.16490 | 20.97667 | 354 ft | 25 kts | 115° |
| 2026-05-04 02:32 | 52.16415 | 20.97937 | 354 ft | 28 kts | 114° |
| 2026-05-04 02:32 | 52.16335 | 20.98230 | 357 ft | 26 kts | 115° |
| 2026-05-04 02:33 | 52.16260 | 20.98454 | 350 ft | 18 kts | 153° |
| 2026-05-04 02:33 | 52.16178 | 20.98419 | 355 ft | 0 kts | 207° |
| 2026-05-04 02:33 | 52.16177 | 20.98418 | 355 ft | 1 kts | 207° |
| 2026-05-04 02:34 | 52.16172 | 20.98414 | 353 ft | 2 kts | 207° |
| 2026-05-04 02:34 | 52.16144 | 20.98389 | 351 ft | 5 kts | 212° |
| 2026-05-04 02:35 | 52.16126 | 20.98332 | 352 ft | 7 kts | 261° |
| 2026-05-04 02:35 | 52.16133 | 20.98285 | 353 ft | 0 kts | 293° |
| 2026-05-04 02:38 | 52.16139 | 20.98261 | 353 ft | 19 kts | 294° |
| 2026-05-04 02:38 | 52.16318 | 20.97618 | 354 ft | 104 kts | 294° |
| 2026-05-04 02:38 | 52.16714 | 20.96193 | 349 ft | 170 kts | 294° |
| 2026-05-04 02:39 | 52.17252 | 20.94251 | 759 ft | 193 kts | 293° |
| 2026-05-04 02:39 | 52.17806 | 20.92262 | 1644 ft | 201 kts | 290° |
| 2026-05-04 02:39 | 52.18337 | 20.90205 | 2483 ft | 205 kts | 276° |
| 2026-05-04 02:39 | 52.18251 | 20.87823 | 2955 ft | 217 kts | 261° |
| 2026-05-04 02:40 | 52.18109 | 20.85227 | 3265 ft | 240 kts | 262° |
| 2026-05-04 02:40 | 52.18001 | 20.82441 | 3857 ft | 253 kts | 274° |
| 2026-05-04 02:40 | 52.18414 | 20.79686 | 4788 ft | 254 kts | 282° |
| 2026-05-04 02:40 | 52.18858 | 20.76839 | 5605 ft | 259 kts | 279° |
| 2026-05-04 02:41 | 52.19265 | 20.73998 | 6366 ft | 263 kts | 279° |
| 2026-05-04 02:41 | 52.19609 | 20.71027 | 7137 ft | 263 kts | 268° |
| 2026-05-04 02:41 | 52.19328 | 20.68153 | 7915 ft | 261 kts | 250° |
| 2026-05-04 02:41 | 52.18700 | 20.65334 | 8732 ft | 263 kts | 248° |
| 2026-05-04 02:42 | 52.18067 | 20.62560 | 9476 ft | 266 kts | 248° |
| 2026-05-04 02:42 | 52.17415 | 20.59676 | 10231 ft | 270 kts | 248° |
| 2026-05-04 02:42 | 52.16757 | 20.56748 | 10495 ft | 291 kts | 249° |
| 2026-05-04 02:42 | 52.16040 | 20.53536 | 10684 ft | 312 kts | 249° |
| 2026-05-04 02:43 | 52.15370 | 20.49989 | 10838 ft | 336 kts | 259° |
| 2026-05-04 02:43 | 52.15368 | 20.46106 | 11233 ft | 349 kts | 272° |
| 2026-05-04 02:43 | 52.15547 | 20.42134 | 11855 ft | 354 kts | 272° |
| 2026-05-04 02:43 | 52.15726 | 20.38179 | 12526 ft | 356 kts | 272° |
| 2026-05-04 02:44 | 52.15902 | 20.34136 | 13179 ft | 360 kts | 272° |
| 2026-05-04 02:44 | 52.16073 | 20.30060 | 13814 ft | 363 kts | 272° |
| 2026-05-04 02:44 | 52.16239 | 20.25938 | 14414 ft | 366 kts | 272° |
| 2026-05-04 02:44 | 52.16404 | 20.21797 | 15046 ft | 367 kts | 272° |
| 2026-05-04 02:45 | 52.16565 | 20.17643 | 15655 ft | 369 kts | 272° |
| 2026-05-04 02:45 | 52.16726 | 20.13457 | 16242 ft | 372 kts | 272° |
| 2026-05-04 02:45 | 52.16886 | 20.09240 | 16826 ft | 374 kts | 272° |
| 2026-05-04 02:45 | 52.17045 | 20.04991 | 17408 ft | 377 kts | 272° |
| 2026-05-04 02:46 | 52.17204 | 20.00722 | 17977 ft | 379 kts | 272° |
| 2026-05-04 02:46 | 52.17363 | 19.96422 | 18509 ft | 382 kts | 272° |
| 2026-05-04 02:46 | 52.17521 | 19.92090 | 18971 ft | 385 kts | 272° |
| 2026-05-04 02:46 | 52.17673 | 19.87714 | 19421 ft | 388 kts | 271° |
| 2026-05-04 02:47 | 52.17525 | 19.83316 | 19861 ft | 391 kts | 262° |
| 2026-05-04 02:47 | 52.17120 | 19.78924 | 20330 ft | 393 kts | 261° |
| 2026-05-04 02:47 | 52.16681 | 19.74506 | 20777 ft | 397 kts | 261° |
| 2026-05-04 02:47 | 52.16243 | 19.70046 | 21209 ft | 401 kts | 261° |
| 2026-05-04 02:48 | 52.15818 | 19.65544 | 21655 ft | 404 kts | 261° |
| 2026-05-04 02:48 | 52.15402 | 19.61010 | 22095 ft | 407 kts | 261° |
| 2026-05-04 02:48 | 52.14989 | 19.56437 | 22518 ft | 410 kts | 262° |
| 2026-05-04 02:48 | 52.14576 | 19.51824 | 22941 ft | 413 kts | 262° |
| 2026-05-04 02:49 | 52.14159 | 19.47182 | 23382 ft | 416 kts | 262° |
| 2026-05-04 02:49 | 52.13738 | 19.42507 | 23746 ft | 419 kts | 262° |
| 2026-05-04 02:49 | 52.13310 | 19.37800 | 24086 ft | 422 kts | 261° |
| 2026-05-04 02:49 | 52.12878 | 19.33071 | 24442 ft | 424 kts | 261° |
| 2026-05-04 02:50 | 52.12435 | 19.28307 | 24783 ft | 427 kts | 261° |
| 2026-05-04 02:50 | 52.11985 | 19.23522 | 25139 ft | 429 kts | 261° |
| 2026-05-04 02:50 | 52.11528 | 19.18701 | 25469 ft | 432 kts | 261° |
| 2026-05-04 02:50 | 52.11069 | 19.13866 | 25795 ft | 435 kts | 261° |
| 2026-05-04 02:51 | 52.10605 | 19.08992 | 26115 ft | 437 kts | 261° |
| 2026-05-04 02:51 | 52.10137 | 19.04094 | 26447 ft | 439 kts | 261° |
| 2026-05-04 02:51 | 52.09665 | 18.99173 | 26770 ft | 442 kts | 261° |
| 2026-05-04 02:51 | 52.09188 | 18.94221 | 27078 ft | 444 kts | 261° |
| 2026-05-04 02:52 | 52.08707 | 18.89246 | 27391 ft | 446 kts | 261° |
| 2026-05-04 02:52 | 52.08221 | 18.84248 | 27707 ft | 449 kts | 261° |
| 2026-05-04 02:52 | 52.07732 | 18.79234 | 28005 ft | 451 kts | 261° |
| 2026-05-04 02:52 | 52.07236 | 18.74183 | 28322 ft | 453 kts | 261° |
| 2026-05-04 02:53 | 52.06739 | 18.69133 | 28762 ft | 452 kts | 261° |
| 2026-05-04 02:53 | 52.06240 | 18.64100 | 29250 ft | 450 kts | 261° |
| 2026-05-04 02:53 | 52.05742 | 18.59092 | 29723 ft | 448 kts | 261° |
| 2026-05-04 02:53 | 52.05242 | 18.54091 | 30121 ft | 448 kts | 261° |
| 2026-05-04 02:54 | 52.04748 | 18.49163 | 30471 ft | 447 kts | 261° |
| 2026-05-04 02:54 | 52.04291 | 18.44619 | 30812 ft | 446 kts | 261° |
| 2026-05-04 02:54 | 52.03796 | 18.39726 | 31176 ft | 444 kts | 261° |
| 2026-05-04 02:54 | 52.03294 | 18.34782 | 31536 ft | 443 kts | 260° |
| 2026-05-04 02:55 | 52.02286 | 18.24927 | 32239 ft | 441 kts | 260° |
| 2026-05-04 02:55 | 52.01774 | 18.19949 | 32584 ft | 440 kts | 260° |
| 2026-05-04 02:55 | 52.01268 | 18.15049 | 32904 ft | 440 kts | 260° |
| 2026-05-04 02:56 | 52.00762 | 18.10165 | 33219 ft | 439 kts | 260° |
| 2026-05-04 02:56 | 52.00262 | 18.05348 | 33534 ft | 438 kts | 261° |
| 2026-05-04 02:56 | 52.00010 | 18.00361 | 33817 ft | 438 kts | 269° |
| 2026-05-04 02:56 | 52.00200 | 17.95428 | 34099 ft | 439 kts | 278° |
| 2026-05-04 02:57 | 52.00784 | 17.90568 | 34379 ft | 438 kts | 280° |
| 2026-05-04 02:57 | 52.01416 | 17.85745 | 34623 ft | 437 kts | 281° |
| 2026-05-04 02:57 | 52.02054 | 17.80926 | 34847 ft | 437 kts | 281° |
| 2026-05-04 02:57 | 52.02421 | 17.78140 | 34980 ft | 437 kts | 281° |
| 2026-05-04 02:58 | 52.03047 | 17.73327 | 35209 ft | 436 kts | 280° |
| 2026-05-04 02:58 | 52.03662 | 17.68511 | 35426 ft | 435 kts | 280° |
| 2026-05-04 02:58 | 52.04268 | 17.63701 | 35659 ft | 434 kts | 280° |
| 2026-05-04 02:58 | 52.04868 | 17.58897 | 35884 ft | 433 kts | 280° |
| 2026-05-04 02:59 | 52.05462 | 17.54095 | 35957 ft | 435 kts | 280° |
| 2026-05-04 02:59 | 52.06647 | 17.44455 | 35954 ft | 434 kts | 279° |
| 2026-05-04 03:00 | 52.07817 | 17.34871 | 35969 ft | 431 kts | 279° |
| 2026-05-04 03:00 | 52.08973 | 17.25340 | 35964 ft | 429 kts | 279° |
| 2026-05-04 03:01 | 52.10110 | 17.15903 | 35965 ft | 428 kts | 279° |
| 2026-05-04 03:01 | 52.11244 | 17.06410 | 35960 ft | 428 kts | 279° |
| 2026-05-04 03:02 | 52.12372 | 16.96904 | 35958 ft | 428 kts | 279° |
| 2026-05-04 03:02 | 52.13495 | 16.87376 | 35960 ft | 429 kts | 278° |
| 2026-05-04 03:03 | 52.14613 | 16.77814 | 35951 ft | 430 kts | 278° |
| 2026-05-04 03:03 | 52.15726 | 16.68236 | 35955 ft | 431 kts | 278° |
| 2026-05-04 03:04 | 52.16833 | 16.58626 | 35955 ft | 432 kts | 278° |
| 2026-05-04 03:04 | 52.17933 | 16.49012 | 35947 ft | 432 kts | 278° |
| 2026-05-04 03:05 | 52.19025 | 16.39386 | 35952 ft | 432 kts | 278° |
| 2026-05-04 03:05 | 52.20108 | 16.29776 | 35955 ft | 431 kts | 278° |
| 2026-05-04 03:06 | 52.21180 | 16.20179 | 35943 ft | 430 kts | 278° |
| 2026-05-04 03:06 | 52.22243 | 16.10598 | 35951 ft | 428 kts | 277° |
| 2026-05-04 03:07 | 52.23294 | 16.01044 | 35933 ft | 428 kts | 277° |
| 2026-05-04 03:07 | 52.24335 | 15.91506 | 35945 ft | 426 kts | 277° |
| 2026-05-04 03:08 | 52.25367 | 15.81985 | 35936 ft | 426 kts | 277° |
| 2026-05-04 03:08 | 52.26389 | 15.72470 | 35941 ft | 425 kts | 277° |
| 2026-05-04 03:09 | 52.27394 | 15.63044 | 35942 ft | 425 kts | 277° |
| 2026-05-04 03:09 | 52.28400 | 15.53539 | 35943 ft | 425 kts | 277° |
| 2026-05-04 03:10 | 52.29398 | 15.44016 | 35944 ft | 426 kts | 277° |
| 2026-05-04 03:10 | 52.30180 | 15.36510 | 35959 ft | 426 kts | 277° |
| 2026-05-04 03:11 | 52.31009 | 15.28501 | 35941 ft | 427 kts | 276° |
| 2026-05-04 03:11 | 52.31993 | 15.18914 | 35950 ft | 427 kts | 276° |
| 2026-05-04 03:12 | 52.32968 | 15.09341 | 35947 ft | 428 kts | 276° |
| 2026-05-04 03:12 | 52.33938 | 14.99737 | 35947 ft | 428 kts | 276° |
| 2026-05-04 03:13 | 52.34894 | 14.90194 | 35953 ft | 428 kts | 276° |
| 2026-05-04 03:13 | 52.35854 | 14.80526 | 35943 ft | 428 kts | 276° |
| 2026-05-04 03:14 | 52.36322 | 14.75777 | 35946 ft | 428 kts | 276° |
| 2026-05-04 03:14 | 52.37265 | 14.66169 | 35954 ft | 427 kts | 276° |
| 2026-05-04 03:15 | 52.38096 | 14.56622 | 35912 ft | 425 kts | 270° |
| 2026-05-04 03:15 | 52.38229 | 14.47080 | 35952 ft | 423 kts | 267° |
| 2026-05-04 03:16 | 52.38265 | 14.37445 | 35935 ft | 424 kts | 267° |
| 2026-05-04 03:16 | 52.38320 | 14.27803 | 35933 ft | 424 kts | 268° |
| 2026-05-04 03:17 | 52.38392 | 14.18168 | 35931 ft | 424 kts | 268° |
| 2026-05-04 03:17 | 52.38466 | 14.08532 | 35932 ft | 423 kts | 268° |
| 2026-05-04 03:18 | 52.38495 | 14.04417 | 35943 ft | 423 kts | 268° |
| 2026-05-04 03:18 | 52.38547 | 13.96662 | 35924 ft | 423 kts | 268° |
| 2026-05-04 03:19 | 52.38604 | 13.87060 | 35929 ft | 422 kts | 268° |
| 2026-05-04 03:19 | 52.38653 | 13.77484 | 35956 ft | 421 kts | 267° |
| 2026-05-04 03:20 | 52.38694 | 13.67903 | 35945 ft | 420 kts | 267° |
| 2026-05-04 03:20 | 52.38727 | 13.58342 | 35938 ft | 420 kts | 267° |
| 2026-05-04 03:21 | 52.38753 | 13.48809 | 35944 ft | 419 kts | 267° |
| 2026-05-04 03:21 | 52.38770 | 13.39278 | 35958 ft | 418 kts | 267° |
| 2026-05-04 03:22 | 52.38780 | 13.29765 | 35941 ft | 418 kts | 267° |
| 2026-05-04 03:22 | 52.38782 | 13.20256 | 35947 ft | 418 kts | 267° |
| 2026-05-04 03:23 | 52.38777 | 13.10743 | 35939 ft | 418 kts | 266° |
| 2026-05-04 03:23 | 52.38764 | 13.01237 | 35949 ft | 417 kts | 266° |
| 2026-05-04 03:24 | 52.38743 | 12.91734 | 35947 ft | 418 kts | 266° |
| 2026-05-04 03:24 | 52.38715 | 12.82285 | 35949 ft | 418 kts | 266° |
| 2026-05-04 03:25 | 52.38679 | 12.72767 | 35950 ft | 418 kts | 266° |
| 2026-05-04 03:25 | 52.38636 | 12.63243 | 35946 ft | 418 kts | 266° |
| 2026-05-04 03:26 | 52.38585 | 12.53728 | 35952 ft | 418 kts | 266° |
| 2026-05-04 03:26 | 52.38526 | 12.44210 | 35937 ft | 418 kts | 266° |
| 2026-05-04 03:27 | 52.38459 | 12.34691 | 35940 ft | 418 kts | 266° |
| 2026-05-04 03:27 | 52.38386 | 12.25188 | 35953 ft | 417 kts | 266° |
| 2026-05-04 03:28 | 52.38304 | 12.15692 | 35936 ft | 417 kts | 266° |
| 2026-05-04 03:28 | 52.38215 | 12.06212 | 35952 ft | 416 kts | 266° |
| 2026-05-04 03:29 | 52.38143 | 11.99023 | 35942 ft | 416 kts | 266° |
| 2026-05-04 03:29 | 52.38043 | 11.89746 | 35939 ft | 416 kts | 266° |
| 2026-05-04 03:30 | 52.37933 | 11.80284 | 35943 ft | 416 kts | 266° |
| 2026-05-04 03:30 | 52.37816 | 11.70828 | 35937 ft | 415 kts | 266° |
| 2026-05-04 03:31 | 52.37692 | 11.61380 | 35949 ft | 415 kts | 265° |
| 2026-05-04 03:31 | 52.37560 | 11.51934 | 35942 ft | 416 kts | 265° |
| 2026-05-04 03:32 | 52.37420 | 11.42475 | 35941 ft | 416 kts | 265° |
| 2026-05-04 03:32 | 52.37273 | 11.33014 | 35949 ft | 416 kts | 265° |
| 2026-05-04 03:33 | 52.37118 | 11.23548 | 35942 ft | 417 kts | 265° |
| 2026-05-04 03:33 | 52.36955 | 11.14063 | 35945 ft | 417 kts | 265° |
| 2026-05-04 03:34 | 52.36785 | 11.04567 | 35952 ft | 418 kts | 265° |
| 2026-05-04 03:34 | 52.36607 | 10.95060 | 35951 ft | 419 kts | 265° |
| 2026-05-04 03:35 | 52.36422 | 10.85534 | 35961 ft | 419 kts | 265° |
| 2026-05-04 03:35 | 52.36210 | 10.76004 | 35968 ft | 419 kts | 264° |
| 2026-05-04 03:36 | 52.35875 | 10.66475 | 35964 ft | 420 kts | 263° |
| 2026-05-04 03:36 | 52.35509 | 10.56953 | 35974 ft | 419 kts | 263° |
| 2026-05-04 03:37 | 52.35145 | 10.47427 | 35970 ft | 420 kts | 264° |
| 2026-05-04 03:37 | 52.34782 | 10.37906 | 35964 ft | 420 kts | 264° |
| 2026-05-04 03:38 | 52.34414 | 10.28373 | 35968 ft | 420 kts | 263° |
| 2026-05-04 03:38 | 52.34039 | 10.18848 | 35953 ft | 420 kts | 263° |
| 2026-05-04 03:39 | 52.33656 | 10.09328 | 35942 ft | 419 kts | 263° |
| 2026-05-04 03:39 | 52.33267 | 9.99819 | 35948 ft | 419 kts | 263° |
| 2026-05-04 03:40 | 52.32869 | 9.90309 | 35938 ft | 419 kts | 263° |
| 2026-05-04 03:40 | 52.32464 | 9.80801 | 35951 ft | 419 kts | 263° |
| 2026-05-04 03:41 | 52.32051 | 9.71294 | 35940 ft | 419 kts | 263° |
| 2026-05-04 03:41 | 52.31630 | 9.61785 | 35942 ft | 419 kts | 263° |
| 2026-05-04 03:42 | 52.31202 | 9.52288 | 35951 ft | 419 kts | 263° |
| 2026-05-04 03:42 | 52.30766 | 9.42796 | 35937 ft | 419 kts | 263° |
| 2026-05-04 03:43 | 52.30324 | 9.33316 | 35947 ft | 418 kts | 263° |
| 2026-05-04 03:43 | 52.29877 | 9.23904 | 35950 ft | 418 kts | 263° |
| 2026-05-04 03:44 | 52.29417 | 9.14384 | 35926 ft | 418 kts | 263° |
| 2026-05-04 03:44 | 52.29074 | 9.07386 | 35952 ft | 417 kts | 263° |
| 2026-05-04 03:45 | 52.28602 | 8.97895 | 35945 ft | 416 kts | 263° |
| 2026-05-04 03:45 | 52.28130 | 8.88537 | 35930 ft | 416 kts | 263° |
| 2026-05-04 03:46 | 52.27647 | 8.79131 | 35944 ft | 415 kts | 262° |
| 2026-05-04 03:46 | 52.27154 | 8.69678 | 35954 ft | 414 kts | 262° |
| 2026-05-04 03:47 | 52.26658 | 8.60304 | 35945 ft | 414 kts | 262° |
| 2026-05-04 03:47 | 52.26155 | 8.50936 | 35940 ft | 414 kts | 262° |
| 2026-05-04 03:48 | 52.25644 | 8.41578 | 35949 ft | 414 kts | 262° |
| 2026-05-04 03:48 | 52.25126 | 8.32214 | 35966 ft | 414 kts | 262° |
| 2026-05-04 03:49 | 52.24604 | 8.22922 | 35962 ft | 414 kts | 262° |
| 2026-05-04 03:49 | 52.24071 | 8.13570 | 35957 ft | 414 kts | 262° |
| 2026-05-04 03:50 | 52.23532 | 8.04233 | 35969 ft | 413 kts | 262° |
| 2026-05-04 03:50 | 52.22982 | 7.94836 | 35957 ft | 413 kts | 262° |
| 2026-05-04 03:51 | 52.22428 | 7.85510 | 35973 ft | 413 kts | 262° |
| 2026-05-04 03:51 | 52.21868 | 7.76193 | 35975 ft | 413 kts | 262° |
| 2026-05-04 03:52 | 52.21300 | 7.66879 | 35964 ft | 413 kts | 262° |
| 2026-05-04 03:52 | 52.20725 | 7.57578 | 35973 ft | 412 kts | 262° |
| 2026-05-04 03:53 | 52.20243 | 7.49858 | 35971 ft | 412 kts | 262° |
| 2026-05-04 03:53 | 52.19656 | 7.40583 | 35966 ft | 412 kts | 262° |
| 2026-05-04 03:54 | 52.19062 | 7.31301 | 35952 ft | 411 kts | 262° |
| 2026-05-04 03:54 | 52.18462 | 7.22044 | 35965 ft | 411 kts | 262° |
| 2026-05-04 03:55 | 52.17854 | 7.12793 | 35956 ft | 410 kts | 261° |
| 2026-05-04 03:55 | 52.17241 | 7.03557 | 35955 ft | 410 kts | 261° |
| 2026-05-04 03:56 | 52.16621 | 6.94338 | 35958 ft | 409 kts | 261° |
| 2026-05-04 03:56 | 52.15994 | 6.85123 | 35952 ft | 409 kts | 261° |
| 2026-05-04 03:57 | 52.15360 | 6.75918 | 35954 ft | 409 kts | 261° |
| 2026-05-04 03:57 | 52.14723 | 6.66760 | 35954 ft | 409 kts | 261° |
| 2026-05-04 03:58 | 52.13748 | 6.52958 | 35954 ft | 409 kts | 261° |
| 2026-05-04 03:58 | 52.13088 | 6.43754 | 35964 ft | 409 kts | 261° |
| 2026-05-04 03:59 | 52.12422 | 6.34559 | 35971 ft | 409 kts | 261° |
| 2026-05-04 03:59 | 52.11925 | 6.27756 | 35956 ft | 410 kts | 261° |
| 2026-05-04 04:00 | 52.11246 | 6.18555 | 35968 ft | 410 kts | 261° |
| 2026-05-04 04:00 | 52.10560 | 6.09359 | 35967 ft | 410 kts | 261° |
| 2026-05-04 04:01 | 52.09866 | 6.00161 | 35967 ft | 410 kts | 261° |
| 2026-05-04 04:01 | 52.09164 | 5.90956 | 35971 ft | 410 kts | 260° |
| 2026-05-04 04:02 | 52.08505 | 5.82399 | 35961 ft | 411 kts | 260° |
| 2026-05-04 04:02 | 52.07788 | 5.73182 | 35968 ft | 411 kts | 260° |
| 2026-05-04 04:03 | 52.07065 | 5.63969 | 35972 ft | 411 kts | 260° |
| 2026-05-04 04:03 | 52.06334 | 5.54759 | 35952 ft | 411 kts | 260° |
| 2026-05-04 04:04 | 52.05595 | 5.45546 | 35970 ft | 411 kts | 260° |
| 2026-05-04 04:04 | 52.04850 | 5.36341 | 35946 ft | 410 kts | 260° |
| 2026-05-04 04:05 | 52.04099 | 5.27163 | 35940 ft | 410 kts | 260° |
| 2026-05-04 04:05 | 52.03340 | 5.17983 | 35955 ft | 410 kts | 259° |
| 2026-05-04 04:06 | 52.02580 | 5.08868 | 35933 ft | 410 kts | 259° |
| 2026-05-04 04:06 | 52.01812 | 4.99750 | 35940 ft | 410 kts | 259° |
| 2026-05-04 04:07 | 52.01029 | 4.90536 | 35933 ft | 410 kts | 259° |
| 2026-05-04 04:07 | 52.00240 | 4.81344 | 35938 ft | 411 kts | 259° |
| 2026-05-04 04:08 | 51.99444 | 4.72158 | 35938 ft | 411 kts | 259° |
| 2026-05-04 04:08 | 51.98640 | 4.62959 | 35939 ft | 412 kts | 259° |
| 2026-05-04 04:09 | 51.97828 | 4.53756 | 35940 ft | 413 kts | 259° |
| 2026-05-04 04:09 | 51.97006 | 4.44530 | 35942 ft | 413 kts | 259° |
| 2026-05-04 04:10 | 51.96176 | 4.35297 | 35938 ft | 414 kts | 259° |
| 2026-05-04 04:10 | 51.95338 | 4.26051 | 35941 ft | 414 kts | 259° |
| 2026-05-04 04:11 | 51.94492 | 4.16807 | 35945 ft | 415 kts | 259° |
| 2026-05-04 04:11 | 51.93638 | 4.07555 | 35946 ft | 415 kts | 258° |
| 2026-05-04 04:12 | 51.92775 | 3.98295 | 35951 ft | 416 kts | 258° |
| 2026-05-04 04:12 | 51.91962 | 3.89636 | 35938 ft | 416 kts | 258° |
| 2026-05-04 04:13 | 51.91278 | 3.82410 | 35957 ft | 416 kts | 258° |
| 2026-05-04 04:13 | 51.90679 | 3.76125 | 35930 ft | 417 kts | 258° |
| 2026-05-04 04:14 | 51.89789 | 3.66843 | 35949 ft | 417 kts | 258° |
| 2026-05-04 04:14 | 51.89118 | 3.59894 | 35930 ft | 418 kts | 258° |
| 2026-05-04 04:15 | 51.88213 | 3.50604 | 35944 ft | 418 kts | 258° |
| 2026-05-04 04:15 | 51.87302 | 3.41319 | 35934 ft | 418 kts | 258° |
| 2026-05-04 04:16 | 51.86381 | 3.32017 | 35940 ft | 419 kts | 258° |
| 2026-05-04 04:16 | 51.85460 | 3.22776 | 35943 ft | 419 kts | 258° |
| 2026-05-04 04:17 | 51.84598 | 3.13440 | 35932 ft | 421 kts | 260° |
| 2026-05-04 04:17 | 51.84009 | 3.04019 | 35951 ft | 421 kts | 261° |
| 2026-05-04 04:18 | 51.83438 | 2.94586 | 35938 ft | 422 kts | 261° |
| 2026-05-04 04:18 | 51.82831 | 2.85149 | 35962 ft | 422 kts | 261° |
| 2026-05-04 04:19 | 51.82205 | 2.75717 | 35944 ft | 422 kts | 261° |
| 2026-05-04 04:19 | 51.81572 | 2.66286 | 35957 ft | 422 kts | 260° |
| 2026-05-04 04:20 | 51.80925 | 2.56855 | 35939 ft | 423 kts | 260° |
| 2026-05-04 04:20 | 51.80267 | 2.47391 | 35535 ft | 430 kts | 260° |
| 2026-05-04 04:21 | 51.79928 | 2.42560 | 34836 ft | 432 kts | 260° |
| 2026-05-04 04:21 | 51.79594 | 2.37790 | 34380 ft | 424 kts | 260° |
| 2026-05-04 04:21 | 51.79262 | 2.33069 | 33237 ft | 428 kts | 259° |
| 2026-05-04 04:21 | 51.78920 | 2.28263 | 32211 ft | 430 kts | 259° |
| 2026-05-04 04:22 | 51.78580 | 2.23500 | 31516 ft | 424 kts | 258° |
| 2026-05-04 04:22 | 51.78267 | 2.18821 | 31147 ft | 413 kts | 259° |
| 2026-05-04 04:22 | 51.78001 | 2.14278 | 30913 ft | 400 kts | 259° |
| 2026-05-04 04:22 | 51.77749 | 2.09817 | 30279 ft | 398 kts | 259° |
| 2026-05-04 04:23 | 51.77499 | 2.05418 | 29791 ft | 391 kts | 258° |
| 2026-05-04 04:23 | 51.77244 | 2.01054 | 29200 ft | 386 kts | 258° |
| 2026-05-04 04:23 | 51.76991 | 1.96760 | 28510 ft | 384 kts | 259° |
| 2026-05-04 04:23 | 51.76736 | 1.92520 | 28113 ft | 376 kts | 259° |
| 2026-05-04 04:24 | 51.76481 | 1.88312 | 27450 ft | 376 kts | 259° |
| 2026-05-04 04:24 | 51.76226 | 1.84142 | 26927 ft | 373 kts | 259° |
| 2026-05-04 04:24 | 51.75966 | 1.79949 | 26395 ft | 378 kts | 259° |
| 2026-05-04 04:24 | 51.75700 | 1.75671 | 25814 ft | 389 kts | 260° |
| 2026-05-04 04:25 | 51.75430 | 1.71313 | 25252 ft | 390 kts | 260° |
| 2026-05-04 04:25 | 51.75162 | 1.66972 | 24681 ft | 387 kts | 261° |
| 2026-05-04 04:25 | 51.74892 | 1.62666 | 24125 ft | 384 kts | 261° |
| 2026-05-04 04:25 | 51.74486 | 1.58421 | 23493 ft | 382 kts | 256° |
| 2026-05-04 04:26 | 51.73906 | 1.54238 | 22747 ft | 382 kts | 254° |
| 2026-05-04 04:26 | 51.73288 | 1.50094 | 22139 ft | 379 kts | 254° |
| 2026-05-04 04:26 | 51.72667 | 1.45989 | 21593 ft | 375 kts | 254° |
| 2026-05-04 04:26 | 51.72055 | 1.41927 | 21013 ft | 372 kts | 254° |
| 2026-05-04 04:27 | 51.71451 | 1.37882 | 20420 ft | 370 kts | 254° |
| 2026-05-04 04:27 | 51.70854 | 1.33854 | 19848 ft | 369 kts | 254° |
| 2026-05-04 04:27 | 51.70262 | 1.29842 | 19305 ft | 366 kts | 254° |
| 2026-05-04 04:27 | 51.69676 | 1.25858 | 18780 ft | 364 kts | 254° |
| 2026-05-04 04:28 | 51.69094 | 1.21896 | 18244 ft | 363 kts | 254° |
| 2026-05-04 04:28 | 51.68512 | 1.17949 | 17667 ft | 361 kts | 254° |
| 2026-05-04 04:28 | 51.67935 | 1.14033 | 17133 ft | 357 kts | 254° |
| 2026-05-04 04:28 | 51.67362 | 1.10157 | 16620 ft | 354 kts | 254° |
| 2026-05-04 04:29 | 51.66792 | 1.06312 | 16104 ft | 352 kts | 254° |
| 2026-05-04 04:29 | 51.66225 | 1.02499 | 15590 ft | 349 kts | 255° |
| 2026-05-04 04:29 | 51.65661 | 0.98708 | 15080 ft | 347 kts | 254° |
| 2026-05-04 04:29 | 51.65412 | 0.97041 | 14876 ft | 346 kts | 255° |
| 2026-05-04 04:30 | 51.64858 | 0.93340 | 14406 ft | 343 kts | 255° |
| 2026-05-04 04:30 | 51.64293 | 0.89569 | 13926 ft | 341 kts | 255° |
| 2026-05-04 04:30 | 51.63738 | 0.85873 | 13412 ft | 339 kts | 255° |
| 2026-05-04 04:30 | 51.63185 | 0.82197 | 12897 ft | 336 kts | 255° |
| 2026-05-04 04:31 | 51.62635 | 0.78553 | 12398 ft | 334 kts | 255° |
| 2026-05-04 04:31 | 51.62088 | 0.74936 | 11887 ft | 332 kts | 255° |
| 2026-05-04 04:31 | 51.61544 | 0.71343 | 11402 ft | 330 kts | 255° |
| 2026-05-04 04:31 | 51.61006 | 0.67800 | 10914 ft | 328 kts | 255° |
| 2026-05-04 04:32 | 51.60465 | 0.64251 | 10527 ft | 324 kts | 255° |
| 2026-05-04 04:32 | 51.59934 | 0.60763 | 10444 ft | 310 kts | 255° |
| 2026-05-04 04:32 | 51.59433 | 0.57478 | 10365 ft | 296 kts | 255° |
| 2026-05-04 04:32 | 51.58953 | 0.54345 | 10377 ft | 280 kts | 255° |
| 2026-05-04 04:33 | 51.58498 | 0.51371 | 10343 ft | 267 kts | 255° |
| 2026-05-04 04:33 | 51.58065 | 0.48553 | 10287 ft | 255 kts | 255° |
| 2026-05-04 04:33 | 51.57636 | 0.45772 | 9950 ft | 256 kts | 255° |
| 2026-05-04 04:33 | 51.57211 | 0.43022 | 9697 ft | 252 kts | 255° |
| 2026-05-04 04:34 | 51.56794 | 0.40328 | 9392 ft | 250 kts | 255° |
| 2026-05-04 04:34 | 51.56376 | 0.37630 | 9108 ft | 248 kts | 255° |
| 2026-05-04 04:34 | 51.56101 | 0.35859 | 8871 ft | 245 kts | 255° |
| 2026-05-04 04:34 | 51.55902 | 0.34579 | 8619 ft | 245 kts | 255° |
| 2026-05-04 04:35 | 51.55556 | 0.32347 | 8295 ft | 242 kts | 255° |
| 2026-05-04 04:35 | 51.55156 | 0.29779 | 7924 ft | 238 kts | 255° |
| 2026-05-04 04:35 | 51.54880 | 0.28006 | 7644 ft | 236 kts | 255° |
| 2026-05-04 04:35 | 51.54597 | 0.26192 | 7396 ft | 234 kts | 254° |
| 2026-05-04 04:36 | 51.54082 | 0.22894 | 6910 ft | 230 kts | 254° |
| 2026-05-04 04:36 | 51.54000 | 0.22368 | 6831 ft | 230 kts | 254° |
| 2026-05-04 04:36 | 51.53606 | 0.19852 | 6460 ft | 228 kts | 254° |
| 2026-05-04 04:36 | 51.53222 | 0.17401 | 6079 ft | 225 kts | 254° |
| 2026-05-04 04:37 | 51.52168 | 0.10699 | 5013 ft | 219 kts | 255° |
| 2026-05-04 04:37 | 51.51792 | 0.08313 | 4632 ft | 217 kts | 255° |
| 2026-05-04 04:38 | 51.51422 | 0.05971 | 4245 ft | 216 kts | 255° |
| 2026-05-04 04:38 | 51.51056 | 0.03651 | 3887 ft | 212 kts | 255° |
| 2026-05-04 04:38 | 51.50697 | 0.01386 | 3514 ft | 207 kts | 255° |
| 2026-05-04 04:38 | 51.50342 | -0.00856 | 3116 ft | 202 kts | 255° |
| 2026-05-04 04:39 | 51.50002 | -0.03005 | 2757 ft | 197 kts | 255° |
| 2026-05-04 04:39 | 51.49679 | -0.05040 | 2602 ft | 185 kts | 255° |
| 2026-05-04 04:39 | 51.49360 | -0.07048 | 2631 ft | 186 kts | 255° |
| 2026-05-04 04:39 | 51.49045 | -0.09025 | 2593 ft | 178 kts | 255° |
| 2026-05-04 04:40 | 51.48740 | -0.10938 | 2602 ft | 171 kts | 255° |
| 2026-05-04 04:40 | 51.48468 | -0.12637 | 2585 ft | 167 kts | 254° |
| 2026-05-04 04:40 | 51.48169 | -0.14500 | 2613 ft | 178 kts | 255° |
| 2026-05-04 04:40 | 51.47944 | -0.16457 | 2611 ft | 182 kts | 264° |
| 2026-05-04 04:41 | 51.47893 | -0.18454 | 2587 ft | 176 kts | 268° |
| 2026-05-04 04:41 | 51.47879 | -0.20365 | 2594 ft | 170 kts | 268° |
| 2026-05-04 04:41 | 51.47872 | -0.21412 | 2594 ft | 170 kts | 268° |
| 2026-05-04 04:41 | 51.47862 | -0.23299 | 2579 ft | 170 kts | 268° |
| 2026-05-04 04:42 | 51.47851 | -0.25213 | 2387 ft | 170 kts | 268° |
| 2026-05-04 04:42 | 51.47842 | -0.27066 | 2166 ft | 163 kts | 268° |
| 2026-05-04 04:42 | 51.47833 | -0.28817 | 1964 ft | 150 kts | 268° |
| 2026-05-04 04:42 | 51.47825 | -0.30435 | 1819 ft | 139 kts | 268° |
| 2026-05-04 04:43 | 51.47817 | -0.31979 | 1552 ft | 140 kts | 269° |
| 2026-05-04 04:43 | 51.47809 | -0.33564 | 1401 ft | 143 kts | 269° |
| 2026-05-04 04:43 | 51.47801 | -0.35162 | 1192 ft | 142 kts | 268° |
| 2026-05-04 04:43 | 51.47795 | -0.36739 | 950 ft | 142 kts | 269° |
| 2026-05-04 04:44 | 51.47787 | -0.38344 | 758 ft | 146 kts | 270° |
| 2026-05-04 04:44 | 51.47781 | -0.39976 | 545 ft | 146 kts | 270° |
| 2026-05-04 04:44 | 51.47770 | -0.41585 | 355 ft | 146 kts | 271° |
| 2026-05-04 04:44 | 51.47770 | -0.43233 | 122 ft | 145 kts | 270° |
| 2026-05-04 04:45 | 51.47767 | -0.43976 | 93 ft | 130 kts | 270° |
| 2026-05-04 04:45 | 51.47764 | -0.45188 | 88 ft | 63 kts | 269° |
| 2026-05-04 04:45 | 51.47662 | -0.45471 | 84 ft | 24 kts | 180° |
| 2026-05-04 04:47 | 51.47416 | -0.44426 | 84 ft | 0 kts | 89° |